createdAt,value
2023-04-03T00:00:35.518Z,2.50
2023-04-03T00:03:02.715Z,1.23
2023-04-03T00:05:29.562Z,1.98
2023-04-03T00:07:56.410Z,1.65
2023-04-03T00:10:23.511Z,1.52
2023-04-03T00:12:50.672Z,1.75
2023-04-03T00:15:17.503Z,2.15
2023-04-03T00:17:44.345Z,1.00
2023-04-03T00:20:11.442Z,1.40
2023-04-03T00:22:38.419Z,1.35
2023-04-03T00:25:05.777Z,1.30
2023-04-03T00:27:32.616Z,1.52
2023-04-03T00:29:59.431Z,0.93
2023-04-03T00:32:26.429Z,2.05
2023-04-03T00:34:53.527Z,1.45
2023-04-03T00:37:20.502Z,1.45
2023-04-03T00:39:47.297Z,1.38
2023-04-03T00:42:14.133Z,1.35
2023-04-03T00:44:40.883Z,1.75
2023-04-03T00:47:11.474Z,2.20
2023-04-03T00:49:39.634Z,1.20
2023-04-03T00:52:10.845Z,1.42
2023-04-03T00:54:38.353Z,1.02
2023-04-03T00:57:07.327Z,1.50
2023-04-03T00:59:39.760Z,1.70
2023-04-03T01:02:06.621Z,1.13
2023-04-03T01:04:37.758Z,2.53
2023-04-03T01:07:17.802Z,1.20
2023-04-03T01:09:47.749Z,1.63
2023-04-03T01:12:30.382Z,1.80
2023-04-03T01:15:05.379Z,1.77
2023-04-03T01:17:32.225Z,1.35
2023-04-03T01:20:32.969Z,1.52
2023-04-03T01:23:38.594Z,1.58
2023-04-03T01:26:06.253Z,1.30
2023-04-03T01:28:36.118Z,1.23
2023-04-03T01:31:44.277Z,1.63
2023-04-03T01:34:11.152Z,1.20
2023-04-03T01:36:37.975Z,2.30
2023-04-03T01:39:05.183Z,1.55
2023-04-03T01:41:33.209Z,1.08
2023-04-03T01:44:08.884Z,1.77
2023-04-03T01:46:35.855Z,1.15
2023-04-03T01:49:03.120Z,1.85
2023-04-03T01:51:30.322Z,1.88
2023-04-03T01:53:57.413Z,1.52
2023-04-03T01:56:24.265Z,1.85
2023-04-03T01:58:51.393Z,2.25
2023-04-03T02:01:19.041Z,0.80
2023-04-03T02:03:46.001Z,1.45
2023-04-03T02:06:13.047Z,1.30
2023-04-03T02:08:40.045Z,1.33
2023-04-03T02:11:06.989Z,1.13
2023-04-03T02:13:34.038Z,1.80
2023-04-03T02:16:06.674Z,1.45
2023-04-03T02:18:33.502Z,2.15
2023-04-03T02:21:00.289Z,1.15
2023-04-03T02:23:27.215Z,1.85
2023-04-03T02:25:54.096Z,1.23
2023-04-03T02:28:23.164Z,1.15
2023-04-03T02:30:50.015Z,1.60
2023-04-03T02:33:16.935Z,0.98
2023-04-03T02:35:44.139Z,2.33
2023-04-03T02:38:11.541Z,1.38
2023-04-03T02:40:39.110Z,1.60
2023-04-03T02:43:06.137Z,1.40
2023-04-03T02:45:33.795Z,1.60
2023-04-03T02:48:00.736Z,1.25
2023-04-03T02:50:27.691Z,1.45
2023-04-03T02:52:54.984Z,1.95
2023-04-03T02:55:21.963Z,3.45
2023-04-03T02:57:50.950Z,1.95
2023-04-03T03:00:18.591Z,1.33
2023-04-03T03:02:45.426Z,1.40
2023-04-03T03:05:12.304Z,1.65
2023-04-03T03:07:39.645Z,1.83
2023-04-03T03:10:06.860Z,1.80
2023-04-03T03:12:33.862Z,1.85
2023-04-03T03:15:00.927Z,1.30
2023-04-03T03:17:27.790Z,2.17
2023-04-03T03:19:54.656Z,1.35
2023-04-03T03:22:21.493Z,2.00
2023-04-03T03:24:48.307Z,2.88
2023-04-03T03:27:17.132Z,2.63
2023-04-03T03:29:44.100Z,3.92
2023-04-03T03:32:11.385Z,1.35
2023-04-03T03:34:38.265Z,1.88
2023-04-03T03:37:06.218Z,1.63
2023-04-03T03:39:33.012Z,2.88
2023-04-03T03:42:00.001Z,2.15
2023-04-03T03:44:27.106Z,1.50
2023-04-03T03:46:54.317Z,2.08
2023-04-03T03:49:21.710Z,2.25
2023-04-03T03:51:48.923Z,1.70
2023-04-03T03:54:15.799Z,1.60
2023-04-03T03:56:42.632Z,1.33
2023-04-03T03:59:09.532Z,2.45
2023-04-03T04:01:36.482Z,1.92
2023-04-03T04:04:04.019Z,1.50
2023-04-03T04:06:32.197Z,1.92
2023-04-03T04:09:03.479Z,1.75
2023-04-03T04:11:30.987Z,2.88
2023-04-03T04:13:57.918Z,2.38
2023-04-03T04:16:27.421Z,1.83
2023-04-03T04:18:56.098Z,1.80
2023-04-03T04:21:24.058Z,1.52
2023-04-03T04:23:53.032Z,1.52
2023-04-03T04:26:21.239Z,1.80
2023-04-03T04:28:48.219Z,2.00
2023-04-03T04:31:15.395Z,2.65
2023-04-03T04:33:42.345Z,6.72
2023-04-03T04:36:12.031Z,4.35
2023-04-03T04:38:39.599Z,1.95
2023-04-03T04:41:07.082Z,2.28
2023-04-03T04:43:34.549Z,2.35
2023-04-03T04:46:07.287Z,1.80
2023-04-03T04:48:39.099Z,1.48
2023-04-03T04:51:06.917Z,2.72
2023-04-03T04:53:36.145Z,2.25
2023-04-03T04:56:03.559Z,3.90
2023-04-03T04:58:31.506Z,2.33
2023-04-03T05:01:03.742Z,4.10
2023-04-03T05:03:32.392Z,2.53
2023-04-03T05:05:59.587Z,1.33
2023-04-03T05:08:27.021Z,2.15
2023-04-03T05:10:56.142Z,1.88
2023-04-03T05:13:24.411Z,1.00
2023-04-03T05:15:51.385Z,1.48
2023-04-03T05:18:18.452Z,2.10
2023-04-03T05:20:45.805Z,1.90
2023-04-03T05:23:12.843Z,2.47
2023-04-03T05:25:41.207Z,1.80
2023-04-03T05:28:09.102Z,2.08
2023-04-03T05:30:36.091Z,1.45
2023-04-03T05:33:04.109Z,2.53
2023-04-03T05:35:42.544Z,3.03
2023-04-03T05:38:12.573Z,1.67
2023-04-03T05:40:39.625Z,4.03
2023-04-03T05:43:07.406Z,2.85
2023-04-03T05:45:37.539Z,1.90
2023-04-03T05:48:04.660Z,1.50
2023-04-03T05:50:32.472Z,1.92
2023-04-03T05:53:00.909Z,2.00
2023-04-03T05:55:30.691Z,1.70
2023-04-03T05:57:57.681Z,1.40
2023-04-03T06:00:24.867Z,1.85
2023-04-03T06:03:00.629Z,1.85
2023-04-03T06:05:27.879Z,2.28
2023-04-03T06:07:55.034Z,1.27
2023-04-03T06:10:21.924Z,3.40
2023-04-03T06:12:48.839Z,0.90
2023-04-03T06:15:17.970Z,1.60
2023-04-03T06:17:44.847Z,2.35
2023-04-03T06:20:12.536Z,2.22
2023-04-03T06:22:40.394Z,2.30
2023-04-03T06:25:07.744Z,1.50
2023-04-03T06:27:34.642Z,1.02
2023-04-03T06:30:01.566Z,3.92
2023-04-03T06:32:28.889Z,4.13
2023-04-03T06:34:56.510Z,2.22
2023-04-03T06:37:27.020Z,1.00
2023-04-03T06:42:20.534Z,1.25
2023-04-03T06:44:54.589Z,1.30
2023-04-03T06:47:21.600Z,1.35
2023-04-03T06:49:48.747Z,1.27
2023-04-03T06:52:15.625Z,1.63
2023-04-03T06:54:42.619Z,1.90
2023-04-03T06:57:09.630Z,1.60
2023-04-03T06:59:37.530Z,1.30
2023-04-03T07:02:05.422Z,1.98
2023-04-03T07:04:32.443Z,1.30
2023-04-03T07:06:59.252Z,1.55
2023-04-03T07:09:26.214Z,1.77
2023-04-03T07:11:53.003Z,2.20
2023-04-03T07:14:19.853Z,1.50
2023-04-03T07:16:46.657Z,1.85
2023-04-03T07:19:13.765Z,1.58
2023-04-03T07:21:41.670Z,1.13
2023-04-03T07:24:11.350Z,1.75
2023-04-03T07:26:42.087Z,1.67
2023-04-03T07:29:09.628Z,0.93
2023-04-03T07:31:36.517Z,1.25
2023-04-03T07:34:04.086Z,0.98
2023-04-03T07:36:34.284Z,1.80
2023-04-03T07:39:01.126Z,1.70
2023-04-03T07:41:28.010Z,1.13
2023-04-03T07:43:55.939Z,1.63
2023-04-03T07:46:23.042Z,1.35
2023-04-03T07:48:50.275Z,0.85
2023-04-03T07:51:17.313Z,1.27
2023-04-03T07:53:44.275Z,1.17
2023-04-03T07:56:11.507Z,1.20
2023-04-03T07:58:38.385Z,2.28
2023-04-03T08:01:05.403Z,1.10
2023-04-03T08:03:32.351Z,1.65
2023-04-03T08:06:11.781Z,1.65
2023-04-03T08:08:42.404Z,1.67
2023-04-03T08:11:09.490Z,1.23
2023-04-03T08:13:36.738Z,1.52
2023-04-03T08:16:16.901Z,1.60
2023-04-03T08:18:44.028Z,1.15
2023-04-03T08:21:12.293Z,0.98
2023-04-03T08:23:40.331Z,1.27
2023-04-03T08:26:12.606Z,1.52
2023-04-03T08:28:40.716Z,1.92
2023-04-03T08:31:11.995Z,1.27
2023-04-03T08:33:40.336Z,1.83
2023-04-03T08:36:20.696Z,1.13
2023-04-03T08:38:48.142Z,1.20
2023-04-03T08:41:34.727Z,1.52
2023-04-03T08:44:25.274Z,1.35
2023-04-03T08:49:41.400Z,1.80
2023-04-03T08:52:16.118Z,2.35
2023-04-03T08:54:54.928Z,1.80
2023-04-03T08:57:40.094Z,0.93
2023-04-03T09:00:29.401Z,1.20
2023-04-03T09:02:57.546Z,1.50
2023-04-03T09:05:40.444Z,1.52
2023-04-03T09:08:22.236Z,0.98
2023-04-03T09:10:53.277Z,1.33
2023-04-03T09:13:41.256Z,1.30
2023-04-03T09:16:31.375Z,1.42
2023-04-03T09:19:16.897Z,1.60
2023-04-03T09:21:43.884Z,1.33
2023-04-03T09:24:16.030Z,2.00
2023-04-03T09:26:49.718Z,2.17
2023-04-03T09:29:22.775Z,1.80
2023-04-03T09:31:53.919Z,1.77
2023-04-03T09:34:32.894Z,2.33
2023-04-03T09:37:06.822Z,1.42
2023-04-03T09:39:50.948Z,1.10
2023-04-03T09:42:23.725Z,2.40
2023-04-03T09:45:00.761Z,1.63
2023-04-03T09:47:36.229Z,1.50
2023-04-03T09:50:15.381Z,1.90
2023-04-03T09:52:48.630Z,1.55
2023-04-03T09:55:16.736Z,2.65
2023-04-03T09:57:44.445Z,1.90
2023-04-03T10:00:26.856Z,1.65
2023-04-03T10:02:59.249Z,2.40
2023-04-03T10:05:29.225Z,1.33
2023-04-03T10:08:14.229Z,1.88
2023-04-03T10:10:48.074Z,1.50
2023-04-03T10:13:22.359Z,2.80
2023-04-03T10:16:02.683Z,1.50
2023-04-03T10:18:57.922Z,0.95
2023-04-03T10:21:31.300Z,1.23
2023-04-03T10:24:16.230Z,1.33
2023-04-03T10:26:54.886Z,1.63
2023-04-03T10:29:43.726Z,1.55
2023-04-03T10:32:43.875Z,1.40
2023-04-03T10:35:26.244Z,1.60
2023-04-03T10:38:11.148Z,1.55
2023-04-03T10:41:11.581Z,1.30
2023-04-03T10:44:13.845Z,1.73
2023-04-03T10:46:49.995Z,1.65
2023-04-03T10:49:59.472Z,1.23
2023-04-03T10:52:43.163Z,1.90
2023-04-03T10:55:25.449Z,1.27
2023-04-03T10:57:54.144Z,1.80
2023-04-03T11:00:49.667Z,1.45
2023-04-03T11:03:28.214Z,2.28
2023-04-03T11:05:56.839Z,3.33
2023-04-03T11:08:35.757Z,1.70
2023-04-03T11:11:13.919Z,1.20
2023-04-03T11:14:14.388Z,1.27
2023-04-03T11:16:54.515Z,1.60
2023-04-03T11:19:30.455Z,3.20
2023-04-03T11:22:27.736Z,1.40
2023-04-03T11:25:23.279Z,1.20
2023-04-03T11:27:57.662Z,1.42
2023-04-03T11:30:34.454Z,1.50
2023-04-03T11:33:34.828Z,1.77
2023-04-03T11:36:22.800Z,1.40
2023-04-03T11:39:30.736Z,1.38
2023-04-03T11:42:31.637Z,1.70
2023-04-03T11:45:24.477Z,2.40
2023-04-03T11:48:02.810Z,1.77
2023-04-03T11:50:42.902Z,0.90
2023-04-03T11:53:13.011Z,1.73
2023-04-03T11:55:42.907Z,1.20
2023-04-03T11:58:21.238Z,1.83
2023-04-03T12:00:56.247Z,1.15
2023-04-03T12:03:30.102Z,2.05
2023-04-03T12:05:58.382Z,2.13
2023-04-03T12:08:30.795Z,0.95
2023-04-03T12:11:09.623Z,1.40
2023-04-03T12:13:56.359Z,1.13
2023-04-03T12:16:29.158Z,1.65
2023-04-03T12:19:04.972Z,1.23
2023-04-03T12:21:49.832Z,2.63
2023-04-03T12:24:16.862Z,1.15
2023-04-03T12:27:02.572Z,1.05
2023-04-03T12:29:33.181Z,1.13
2023-04-03T12:32:37.630Z,1.00
2023-04-03T12:35:26.333Z,1.25
2023-04-03T12:38:17.950Z,1.88
2023-04-03T12:41:09.445Z,1.75
2023-04-03T12:44:19.459Z,1.10
2023-04-03T12:46:51.884Z,1.50
2023-04-03T12:49:34.775Z,1.08
2023-04-03T12:52:07.017Z,1.38
2023-04-03T12:54:38.091Z,1.40
2023-04-03T12:57:25.000Z,1.30
2023-04-03T12:59:52.116Z,1.42
2023-04-03T13:02:32.082Z,1.30
2023-04-03T13:05:05.385Z,1.77
2023-04-03T13:07:39.674Z,1.85
2023-04-03T13:10:09.728Z,1.50
2023-04-03T13:12:54.444Z,1.58
2023-04-03T13:15:31.651Z,1.88
2023-04-03T13:17:58.948Z,1.25
2023-04-03T13:20:26.090Z,2.00
2023-04-03T13:23:03.660Z,2.45
2023-04-03T13:25:36.366Z,2.03
2023-04-03T13:28:13.339Z,1.15
2023-04-03T13:30:56.052Z,1.45
2023-04-03T13:33:26.546Z,1.40
2023-04-03T13:38:43.513Z,1.50
2023-04-03T13:41:53.877Z,2.50
2023-04-03T13:44:23.545Z,1.50
2023-04-03T13:47:01.282Z,1.35
2023-04-03T13:49:38.179Z,1.30
2023-04-03T13:52:30.403Z,2.05
2023-04-03T13:55:04.235Z,1.38
2023-04-03T13:57:32.827Z,0.93
2023-04-03T13:59:59.659Z,1.33
2023-04-03T14:02:34.558Z,1.20
2023-04-03T14:05:04.435Z,1.00
2023-04-03T14:07:32.199Z,0.98
2023-04-03T14:09:59.740Z,1.25
2023-04-03T14:12:37.257Z,1.20
2023-04-03T14:15:18.888Z,0.75
2023-04-03T14:17:46.030Z,1.55
2023-04-03T14:20:18.252Z,1.75
2023-04-03T14:22:45.487Z,2.17
2023-04-03T14:25:12.595Z,1.40
2023-04-03T14:27:42.220Z,1.08
2023-04-03T14:30:25.881Z,1.13
2023-04-03T14:32:52.770Z,1.05
2023-04-03T14:35:20.170Z,1.00
2023-04-03T14:37:48.325Z,1.35
2023-04-03T14:40:19.133Z,1.15
2023-04-03T14:42:48.220Z,1.30
2023-04-03T14:45:16.463Z,1.10
2023-04-03T14:47:50.431Z,1.15
2023-04-03T14:50:22.139Z,1.00
2023-04-03T14:52:50.534Z,0.98
2023-04-03T14:55:19.276Z,1.70
2023-04-03T14:57:46.445Z,1.48
2023-04-03T15:00:18.691Z,2.20
2023-04-03T15:02:46.908Z,1.55
2023-04-03T15:05:15.465Z,1.30
2023-04-03T15:07:53.062Z,0.98
2023-04-03T15:10:26.657Z,1.00
2023-04-03T15:12:54.256Z,2.63
2023-04-03T15:15:22.914Z,1.17
2023-04-03T15:17:58.787Z,1.05
2023-04-03T15:20:28.676Z,1.70
2023-04-03T15:22:57.422Z,0.80
2023-04-03T15:25:26.128Z,1.90
2023-04-03T15:27:55.348Z,1.02
2023-04-03T15:30:22.563Z,1.20
2023-04-03T15:32:49.975Z,1.35
2023-04-03T15:35:16.994Z,1.15
2023-04-03T15:37:43.794Z,1.48
2023-04-03T15:40:11.197Z,1.60
2023-04-03T15:42:38.743Z,1.10
2023-04-03T15:45:06.335Z,1.60
2023-04-03T15:47:33.240Z,2.53
2023-04-03T15:50:00.187Z,1.10
2023-04-03T15:52:26.993Z,1.15
2023-04-03T15:54:53.783Z,2.33
2023-04-03T15:57:20.787Z,1.98
2023-04-03T15:59:47.635Z,3.20
2023-04-03T16:02:14.726Z,1.83
2023-04-03T16:04:42.012Z,1.35
2023-04-03T16:07:09.210Z,1.50
2023-04-03T16:09:36.908Z,1.05
2023-04-03T16:12:04.446Z,1.45
2023-04-03T16:14:31.491Z,2.25
2023-04-03T16:17:02.456Z,1.30
2023-04-03T16:19:30.766Z,1.52
2023-04-03T16:21:57.899Z,1.25
2023-04-03T16:24:24.753Z,2.53
2023-04-03T16:26:51.638Z,1.88
2023-04-03T16:29:18.489Z,2.95
2023-04-03T16:31:45.663Z,1.60
2023-04-03T16:34:13.004Z,1.33
2023-04-03T16:36:40.235Z,1.70
2023-04-03T16:39:07.065Z,2.65
2023-04-03T16:41:33.940Z,3.60
2023-04-03T16:44:01.041Z,2.05
2023-04-03T16:46:28.115Z,1.10
2023-04-03T16:48:55.012Z,1.45
2023-04-03T16:51:21.946Z,1.88
2023-04-03T16:53:48.756Z,2.22
2023-04-03T16:56:16.084Z,2.08
2023-04-03T16:58:43.172Z,3.00
2023-04-03T17:01:15.679Z,1.58
2023-04-03T17:03:42.721Z,1.75
2023-04-03T17:06:17.307Z,1.02
2023-04-03T17:08:45.592Z,1.95
2023-04-03T17:11:27.129Z,2.03
2023-04-03T17:13:54.121Z,1.77
2023-04-03T17:16:21.414Z,1.67
2023-04-03T17:18:48.799Z,1.50
2023-04-03T17:21:16.231Z,2.38
2023-04-03T17:23:47.290Z,1.45
2023-04-03T17:26:14.179Z,1.52
2023-04-03T17:28:42.733Z,1.52
2023-04-03T17:31:11.184Z,1.45
2023-04-03T17:33:38.028Z,1.67
2023-04-03T17:36:05.654Z,2.08
2023-04-03T17:38:34.005Z,2.22
2023-04-03T17:41:03.824Z,2.35
2023-04-03T17:43:30.801Z,1.48
2023-04-03T17:46:05.537Z,2.28
2023-04-03T17:48:33.271Z,1.50
2023-04-03T17:51:03.990Z,1.70
2023-04-03T17:53:30.805Z,1.73
2023-04-03T17:55:57.599Z,1.85
2023-04-03T17:58:24.428Z,1.95
2023-04-03T18:00:51.319Z,1.10
2023-04-03T18:03:18.205Z,1.38
2023-04-03T18:05:45.023Z,1.33
2023-04-03T18:08:11.816Z,2.13
2023-04-03T18:10:38.909Z,2.50
2023-04-03T18:13:07.911Z,2.53
2023-04-03T18:15:34.885Z,2.53
2023-04-03T18:18:01.789Z,2.08
2023-04-03T18:20:28.650Z,2.35
2023-04-03T18:22:55.512Z,2.17
2023-04-03T18:25:22.424Z,1.90
2023-04-03T18:27:49.754Z,2.05
2023-04-03T18:30:17.874Z,2.45
2023-04-03T18:32:44.862Z,2.15
2023-04-03T18:35:12.182Z,1.90
2023-04-03T18:37:39.084Z,1.83
2023-04-03T18:40:06.627Z,2.70
2023-04-03T18:42:33.567Z,3.92
2023-04-03T18:45:02.729Z,5.43
2023-04-03T18:47:29.775Z,3.15
2023-04-03T18:49:57.808Z,2.58
2023-04-03T18:52:25.600Z,1.67
2023-04-03T18:54:52.454Z,1.73
2023-04-03T18:57:19.302Z,2.00
2023-04-03T18:59:46.291Z,3.80
2023-04-03T19:02:13.777Z,5.90
2023-04-03T19:04:41.028Z,8.57
2023-04-03T19:07:09.099Z,6.30
2023-04-03T19:09:38.603Z,3.83
2023-04-03T19:12:07.075Z,5.03
2023-04-03T19:14:33.966Z,4.00
2023-04-03T19:17:02.331Z,3.15
2023-04-03T19:19:29.830Z,3.10
2023-04-03T19:21:56.712Z,4.35
2023-04-03T19:24:23.552Z,2.72
2023-04-03T19:26:50.516Z,2.80
2023-04-03T19:29:17.864Z,4.28
2023-04-03T19:31:44.885Z,5.82
2023-04-03T19:34:11.808Z,6.95
2023-04-03T19:36:39.115Z,4.63
2023-04-03T19:39:06.287Z,3.42
2023-04-03T19:41:36.167Z,2.58
2023-04-03T19:44:05.110Z,8.20
2023-04-03T19:46:32.185Z,11.40
2023-04-03T19:48:59.486Z,7.50
2023-04-03T19:51:26.386Z,5.28
2023-04-03T19:53:53.438Z,4.18
2023-04-03T19:56:21.892Z,3.70
2023-04-03T19:58:54.305Z,3.20
2023-04-03T20:01:24.339Z,5.90
2023-04-03T20:03:51.831Z,6.57
2023-04-03T20:06:18.864Z,12.57
2023-04-03T20:08:45.765Z,10.40
2023-04-03T20:11:12.777Z,7.22
2023-04-03T20:13:39.678Z,7.78
2023-04-03T20:16:07.585Z,9.15
2023-04-03T20:18:35.327Z,6.45
2023-04-03T20:21:07.194Z,4.78
2023-04-03T20:23:35.476Z,6.22
2023-04-03T20:26:10.509Z,4.25
2023-04-03T20:28:41.184Z,3.28
2023-04-03T20:31:09.942Z,4.28
2023-04-03T20:33:37.584Z,2.53
2023-04-03T20:36:04.585Z,3.17
2023-04-03T20:38:31.407Z,2.17
2023-04-03T20:40:58.269Z,2.08
2023-04-03T20:43:25.365Z,1.92
2023-04-03T20:45:52.500Z,3.00
2023-04-03T20:48:19.505Z,2.50
2023-04-03T20:50:46.901Z,1.73
2023-04-03T20:53:15.159Z,2.55
2023-04-03T20:55:42.333Z,2.17
2023-04-03T20:58:09.498Z,3.08
2023-04-03T21:00:38.047Z,2.53
2023-04-03T21:03:06.328Z,2.83
2023-04-03T21:05:36.956Z,2.95
2023-04-03T21:08:42.365Z,4.55
2023-04-03T21:11:47.316Z,3.35
2023-04-03T21:14:52.152Z,3.70
2023-04-03T21:17:18.991Z,3.60
2023-04-03T21:19:48.773Z,5.45
2023-04-03T21:22:16.340Z,3.38
2023-04-03T21:24:44.305Z,3.70
2023-04-03T21:27:11.513Z,4.05
2023-04-03T21:29:38.867Z,4.05
2023-04-03T21:32:05.976Z,3.90
2023-04-03T21:34:33.204Z,3.78
2023-04-03T21:37:08.708Z,3.05
2023-04-03T21:39:36.213Z,4.60
2023-04-03T21:42:03.093Z,3.13
2023-04-03T21:44:30.387Z,4.45
2023-04-03T21:46:57.187Z,4.55
2023-04-03T21:49:25.792Z,3.80
2023-04-03T21:51:52.783Z,3.38
2023-04-03T21:54:20.724Z,3.97
2023-04-03T21:56:48.378Z,4.47
2023-04-03T21:59:15.920Z,5.95
2023-04-03T22:01:43.299Z,4.70
2023-04-03T22:04:10.781Z,5.32
2023-04-03T22:06:38.185Z,5.85
2023-04-03T22:09:05.270Z,4.60
2023-04-03T22:11:32.359Z,7.20
2023-04-03T22:14:00.966Z,6.70
2023-04-03T22:16:27.930Z,6.60
2023-04-03T22:18:56.967Z,5.75
2023-04-03T22:21:23.747Z,5.93
2023-04-03T22:23:50.746Z,7.35
2023-04-03T22:26:17.589Z,7.85
2023-04-03T22:28:46.307Z,6.72
2023-04-03T22:31:16.300Z,6.03
2023-04-03T22:36:13.254Z,7.05
2023-04-03T22:38:43.467Z,7.15
2023-04-03T22:41:10.849Z,8.55
2023-04-03T22:43:38.722Z,8.63
2023-04-03T22:46:08.813Z,7.55
2023-04-03T22:51:10.086Z,5.97
2023-04-03T22:53:37.453Z,5.90
2023-04-03T22:56:08.738Z,6.20
2023-04-03T22:58:35.781Z,5.47
2023-04-03T23:01:09.611Z,4.45
2023-04-03T23:03:38.800Z,5.78
2023-04-03T23:06:06.721Z,4.13
2023-04-03T23:08:35.043Z,5.15
2023-04-03T23:11:02.240Z,4.72
2023-04-03T23:13:29.112Z,4.93
2023-04-03T23:16:00.897Z,5.13
2023-04-03T23:18:29.718Z,6.68
2023-04-03T23:20:58.657Z,6.15
2023-04-03T23:23:25.722Z,6.78
2023-04-03T23:26:11.153Z,5.95
2023-04-03T23:28:38.127Z,6.20
2023-04-03T23:31:10.155Z,6.85
2023-04-03T23:33:38.459Z,7.53
2023-04-03T23:36:09.050Z,6.43
2023-04-03T23:38:36.765Z,6.30
2023-04-03T23:41:03.644Z,6.43
2023-04-03T23:43:31.993Z,8.30
2023-04-03T23:45:58.916Z,4.88
2023-04-03T23:48:25.982Z,5.43
2023-04-03T23:50:52.722Z,5.07
2023-04-03T23:53:19.501Z,5.77
2023-04-03T23:55:46.597Z,5.18
2023-04-03T23:58:13.432Z,5.27
